sensor_id;sensor_type;location;lat;lon;timestamp;P1;durP1;ratioP1;P2;durP2;ratioP2
46054;SDS011;31788;6.954;-71.872;2022-09-27T00:00:33;10.18;;;5.70;;
46054;SDS011;31788;6.954;-71.872;2022-09-27T00:03:00;8.25;;;4.32;;
46054;SDS011;31788;6.954;-71.872;2022-09-27T00:05:27;9.93;;;4.80;;
46054;SDS011;31788;6.954;-71.872;2022-09-27T00:07:54;11.02;;;4.78;;
46054;SDS011;31788;6.954;-71.872;2022-09-27T00:10:21;19.93;;;5.20;;
46054;SDS011;31788;6.954;-71.872;2022-09-27T00:12:48;30.27;;;5.75;;
46054;SDS011;31788;6.954;-71.872;2022-09-27T00:15:15;25.02;;;4.97;;
46054;SDS011;31788;6.954;-71.872;2022-09-27T00:17:42;17.90;;;4.33;;
46054;SDS011;31788;6.954;-71.872;2022-09-27T00:20:09;11.98;;;2.67;;
46054;SDS011;31788;6.954;-71.872;2022-09-27T00:22:35;7.97;;;2.88;;
46054;SDS011;31788;6.954;-71.872;2022-09-27T00:25:02;7.03;;;2.50;;
46054;SDS011;31788;6.954;-71.872;2022-09-27T00:27:31;3.60;;;1.70;;
46054;SDS011;31788;6.954;-71.872;2022-09-27T00:29:58;6.75;;;2.10;;
46054;SDS011;31788;6.954;-71.872;2022-09-27T00:32:26;5.22;;;1.30;;
46054;SDS011;31788;6.954;-71.872;2022-09-27T00:34:52;3.50;;;1.10;;
46054;SDS011;31788;6.954;-71.872;2022-09-27T00:37:19;3.83;;;1.00;;
46054;SDS011;31788;6.954;-71.872;2022-09-27T00:39:45;3.75;;;1.15;;
46054;SDS011;31788;6.954;-71.872;2022-09-27T00:42:12;1.83;;;0.70;;
46054;SDS011;31788;6.954;-71.872;2022-09-27T00:49:55;1.00;;;0.57;;
46054;SDS011;31788;6.954;-71.872;2022-09-27T00:55:22;1.13;;;0.43;;
46054;SDS011;31788;6.954;-71.872;2022-09-27T00:57:53;2.85;;;0.60;;
46054;SDS011;31788;6.954;-71.872;2022-09-27T01:00:21;1.30;;;0.30;;
46054;SDS011;31788;6.954;-71.872;2022-09-27T01:02:51;2.20;;;0.40;;
46054;SDS011;31788;6.954;-71.872;2022-09-27T01:05:21;1.30;;;0.43;;
46054;SDS011;31788;6.954;-71.872;2022-09-27T01:07:50;1.40;;;0.40;;
46054;SDS011;31788;6.954;-71.872;2022-09-27T01:10:20;1.08;;;0.35;;
46054;SDS011;31788;6.954;-71.872;2022-09-27T01:15:44;6.72;;;0.70;;
46054;SDS011;31788;6.954;-71.872;2022-09-27T01:18:28;2.40;;;0.50;;
46054;SDS011;31788;6.954;-71.872;2022-09-27T01:41:25;5.43;;;1.17;;
46054;SDS011;31788;6.954;-71.872;2022-09-27T01:47:00;2.10;;;0.80;;
46054;SDS011;31788;6.954;-71.872;2022-09-27T01:49:45;1.67;;;0.80;;
46054;SDS011;31788;6.954;-71.872;2022-09-27T01:52:30;3.08;;;0.90;;
46054;SDS011;31788;6.954;-71.872;2022-09-27T01:55:07;1.90;;;0.75;;
46054;SDS011;31788;6.954;-71.872;2022-09-27T01:57:38;1.80;;;0.70;;
46054;SDS011;31788;6.954;-71.872;2022-09-27T02:00:09;3.13;;;0.70;;
46054;SDS011;31788;6.954;-71.872;2022-09-27T02:02:41;1.55;;;0.68;;
46054;SDS011;31788;6.954;-71.872;2022-09-27T02:06:33;1.23;;;0.60;;
46054;SDS011;31788;6.954;-71.872;2022-09-27T02:08:34;1.38;;;0.70;;
46054;SDS011;31788;6.954;-71.872;2022-09-27T02:11:17;2.10;;;0.67;;
46054;SDS011;31788;6.954;-71.872;2022-09-27T02:16:58;0.88;;;0.50;;
46054;SDS011;31788;6.954;-71.872;2022-09-27T02:22:47;1.63;;;0.60;;
46054;SDS011;31788;6.954;-71.872;2022-09-27T02:28:40;1.73;;;1.00;;
46054;SDS011;31788;6.954;-71.872;2022-09-27T02:31:29;1.52;;;0.70;;
46054;SDS011;31788;6.954;-71.872;2022-09-27T02:34:03;2.45;;;0.60;;
46054;SDS011;31788;6.954;-71.872;2022-09-27T02:36:37;2.30;;;0.65;;
46054;SDS011;31788;6.954;-71.872;2022-09-27T02:39:04;0.80;;;0.40;;
46054;SDS011;31788;6.954;-71.872;2022-09-27T02:41:31;1.23;;;0.50;;
46054;SDS011;31788;6.954;-71.872;2022-09-27T02:43:59;2.65;;;0.47;;
46054;SDS011;31788;6.954;-71.872;2022-09-27T03:00:15;0.93;;;0.32;;
46054;SDS011;31788;6.954;-71.872;2022-09-27T03:05:36;0.65;;;0.30;;
46054;SDS011;31788;6.954;-71.872;2022-09-27T03:08:13;1.43;;;0.30;;
46054;SDS011;31788;6.954;-71.872;2022-09-27T03:10:40;1.25;;;0.50;;
46054;SDS011;31788;6.954;-71.872;2022-09-27T03:13:07;0.73;;;0.30;;
46054;SDS011;31788;6.954;-71.872;2022-09-27T03:15:33;1.95;;;0.47;;
46054;SDS011;31788;6.954;-71.872;2022-09-27T03:18:00;2.00;;;0.45;;
46054;SDS011;31788;6.954;-71.872;2022-09-27T03:20:27;2.95;;;0.40;;
46054;SDS011;31788;6.954;-71.872;2022-09-27T03:22:54;3.60;;;0.90;;
46054;SDS011;31788;6.954;-71.872;2022-09-27T03:25:20;23.67;;;1.98;;
46054;SDS011;31788;6.954;-71.872;2022-09-27T03:27:47;34.23;;;3.10;;
46054;SDS011;31788;6.954;-71.872;2022-09-27T03:30:14;33.60;;;3.03;;
46054;SDS011;31788;6.954;-71.872;2022-09-27T03:32:43;36.03;;;3.13;;
46054;SDS011;31788;6.954;-71.872;2022-09-27T03:35:11;28.40;;;3.08;;
46054;SDS011;31788;6.954;-71.872;2022-09-27T03:37:38;16.10;;;1.60;;
46054;SDS011;31788;6.954;-71.872;2022-09-27T03:40:05;11.07;;;1.23;;
46054;SDS011;31788;6.954;-71.872;2022-09-27T03:42:33;8.23;;;1.00;;
46054;SDS011;31788;6.954;-71.872;2022-09-27T03:44:59;10.45;;;0.90;;
46054;SDS011;31788;6.954;-71.872;2022-09-27T03:47:26;3.95;;;0.80;;
46054;SDS011;31788;6.954;-71.872;2022-09-27T03:49:55;2.97;;;0.70;;
46054;SDS011;31788;6.954;-71.872;2022-09-27T03:52:21;5.22;;;0.90;;
46054;SDS011;31788;6.954;-71.872;2022-09-27T03:54:48;4.07;;;1.30;;
46054;SDS011;31788;6.954;-71.872;2022-09-27T03:57:15;5.05;;;1.00;;
46054;SDS011;31788;6.954;-71.872;2022-09-27T03:59:42;1.85;;;0.80;;
46054;SDS011;31788;6.954;-71.872;2022-09-27T04:02:09;1.85;;;0.90;;
46054;SDS011;31788;6.954;-71.872;2022-09-27T04:04:36;3.57;;;1.00;;
46054;SDS011;31788;6.954;-71.872;2022-09-27T04:07:02;3.55;;;0.90;;
46054;SDS011;31788;6.954;-71.872;2022-09-27T04:09:29;2.50;;;0.75;;
46054;SDS011;31788;6.954;-71.872;2022-09-27T04:11:55;5.05;;;0.80;;
46054;SDS011;31788;6.954;-71.872;2022-09-27T04:14:22;2.97;;;0.70;;
46054;SDS011;31788;6.954;-71.872;2022-09-27T04:16:49;3.05;;;0.70;;
46054;SDS011;31788;6.954;-71.872;2022-09-27T04:19:15;2.42;;;0.70;;
46054;SDS011;31788;6.954;-71.872;2022-09-27T04:21:42;2.63;;;0.80;;
46054;SDS011;31788;6.954;-71.872;2022-09-27T04:24:08;1.25;;;0.60;;
46054;SDS011;31788;6.954;-71.872;2022-09-27T04:26:36;3.88;;;0.60;;
46054;SDS011;31788;6.954;-71.872;2022-09-27T04:29:04;3.40;;;0.60;;
46054;SDS011;31788;6.954;-71.872;2022-09-27T04:31:34;2.40;;;0.60;;
46054;SDS011;31788;6.954;-71.872;2022-09-27T04:34:03;2.40;;;0.60;;
46054;SDS011;31788;6.954;-71.872;2022-09-27T04:36:29;1.70;;;0.50;;
46054;SDS011;31788;6.954;-71.872;2022-09-27T04:39:00;1.65;;;0.65;;
46054;SDS011;31788;6.954;-71.872;2022-09-27T04:41:28;1.92;;;0.70;;
46054;SDS011;31788;6.954;-71.872;2022-09-27T04:43:56;2.20;;;0.68;;
46054;SDS011;31788;6.954;-71.872;2022-09-27T04:46:24;2.70;;;0.60;;
46054;SDS011;31788;6.954;-71.872;2022-09-27T04:48:56;2.22;;;0.80;;
46054;SDS011;31788;6.954;-71.872;2022-09-27T04:51:26;1.52;;;0.52;;
46054;SDS011;31788;6.954;-71.872;2022-09-27T04:53:54;2.55;;;0.60;;
46054;SDS011;31788;6.954;-71.872;2022-09-27T04:56:21;8.85;;;1.10;;
46054;SDS011;31788;6.954;-71.872;2022-09-27T04:58:48;17.20;;;2.20;;
46054;SDS011;31788;6.954;-71.872;2022-09-27T05:01:16;20.58;;;2.33;;
46054;SDS011;31788;6.954;-71.872;2022-09-27T05:03:42;32.30;;;3.30;;
46054;SDS011;31788;6.954;-71.872;2022-09-27T05:06:09;31.13;;;3.10;;
46054;SDS011;31788;6.954;-71.872;2022-09-27T05:08:35;19.45;;;1.48;;
46054;SDS011;31788;6.954;-71.872;2022-09-27T05:11:02;19.38;;;1.85;;
46054;SDS011;31788;6.954;-71.872;2022-09-27T05:13:29;19.52;;;2.05;;
46054;SDS011;31788;6.954;-71.872;2022-09-27T05:16:00;10.93;;;1.52;;
46054;SDS011;31788;6.954;-71.872;2022-09-27T05:18:28;8.95;;;0.93;;
46054;SDS011;31788;6.954;-71.872;2022-09-27T05:20:55;4.25;;;0.60;;
46054;SDS011;31788;6.954;-71.872;2022-09-27T05:23:23;4.82;;;0.60;;
46054;SDS011;31788;6.954;-71.872;2022-09-27T05:25:50;3.67;;;0.70;;
46054;SDS011;31788;6.954;-71.872;2022-09-27T05:28:19;4.35;;;0.70;;
46054;SDS011;31788;6.954;-71.872;2022-09-27T05:30:46;4.38;;;0.65;;
46054;SDS011;31788;6.954;-71.872;2022-09-27T05:33:12;2.20;;;0.63;;
46054;SDS011;31788;6.954;-71.872;2022-09-27T05:35:39;3.37;;;0.57;;
46054;SDS011;31788;6.954;-71.872;2022-09-27T05:38:06;3.38;;;0.50;;
46054;SDS011;31788;6.954;-71.872;2022-09-27T05:40:34;3.47;;;0.50;;
46054;SDS011;31788;6.954;-71.872;2022-09-27T05:43:00;2.05;;;0.50;;
46054;SDS011;31788;6.954;-71.872;2022-09-27T05:45:28;3.85;;;0.70;;
46054;SDS011;31788;6.954;-71.872;2022-09-27T05:47:55;2.72;;;0.45;;
46054;SDS011;31788;6.954;-71.872;2022-09-27T05:50:23;0.63;;;0.50;;
46054;SDS011;31788;6.954;-71.872;2022-09-27T05:52:51;2.17;;;0.98;;
46054;SDS011;31788;6.954;-71.872;2022-09-27T05:55:18;2.00;;;0.77;;
46054;SDS011;31788;6.954;-71.872;2022-09-27T05:57:58;2.55;;;0.98;;
46054;SDS011;31788;6.954;-71.872;2022-09-27T06:00:26;3.22;;;0.95;;
46054;SDS011;31788;6.954;-71.872;2022-09-27T06:02:55;1.85;;;0.93;;
46054;SDS011;31788;6.954;-71.872;2022-09-27T06:05:23;2.97;;;1.10;;
46054;SDS011;31788;6.954;-71.872;2022-09-27T06:07:51;2.42;;;1.02;;
46054;SDS011;31788;6.954;-71.872;2022-09-27T06:10:23;3.40;;;0.90;;
46054;SDS011;31788;6.954;-71.872;2022-09-27T06:12:50;3.55;;;0.75;;
46054;SDS011;31788;6.954;-71.872;2022-09-27T06:15:16;3.08;;;0.60;;
46054;SDS011;31788;6.954;-71.872;2022-09-27T06:17:43;2.50;;;0.90;;
46054;SDS011;31788;6.954;-71.872;2022-09-27T06:20:09;1.98;;;0.55;;
46054;SDS011;31788;6.954;-71.872;2022-09-27T06:22:37;3.15;;;0.70;;
46054;SDS011;31788;6.954;-71.872;2022-09-27T06:25:05;2.50;;;0.57;;
46054;SDS011;31788;6.954;-71.872;2022-09-27T06:27:33;3.40;;;0.68;;
46054;SDS011;31788;6.954;-71.872;2022-09-27T06:30:00;1.55;;;0.50;;
46054;SDS011;31788;6.954;-71.872;2022-09-27T06:32:26;3.28;;;0.65;;
46054;SDS011;31788;6.954;-71.872;2022-09-27T06:34:53;2.47;;;0.50;;
46054;SDS011;31788;6.954;-71.872;2022-09-27T06:37:23;2.08;;;0.65;;
46054;SDS011;31788;6.954;-71.872;2022-09-27T06:39:51;2.70;;;0.40;;
46054;SDS011;31788;6.954;-71.872;2022-09-27T06:42:18;2.55;;;0.50;;
46054;SDS011;31788;6.954;-71.872;2022-09-27T06:44:45;1.70;;;0.60;;
46054;SDS011;31788;6.954;-71.872;2022-09-27T06:47:13;4.10;;;1.00;;
46054;SDS011;31788;6.954;-71.872;2022-09-27T06:49:41;2.35;;;0.90;;
46054;SDS011;31788;6.954;-71.872;2022-09-27T06:52:07;3.83;;;0.63;;
46054;SDS011;31788;6.954;-71.872;2022-09-27T06:54:34;1.80;;;0.50;;
46054;SDS011;31788;6.954;-71.872;2022-09-27T06:57:01;2.05;;;0.43;;
46054;SDS011;31788;6.954;-71.872;2022-09-27T06:59:28;2.38;;;0.60;;
46054;SDS011;31788;6.954;-71.872;2022-09-27T07:02:12;2.25;;;0.60;;
46054;SDS011;31788;6.954;-71.872;2022-09-27T07:04:39;1.65;;;0.70;;
46054;SDS011;31788;6.954;-71.872;2022-09-27T07:07:05;1.88;;;0.70;;
46054;SDS011;31788;6.954;-71.872;2022-09-27T07:09:32;3.38;;;0.80;;
46054;SDS011;31788;6.954;-71.872;2022-09-27T07:11:58;3.20;;;0.77;;
46054;SDS011;31788;6.954;-71.872;2022-09-27T07:14:26;3.95;;;0.90;;
46054;SDS011;31788;6.954;-71.872;2022-09-27T07:16:52;4.03;;;1.00;;
46054;SDS011;31788;6.954;-71.872;2022-09-27T07:19:19;2.50;;;0.77;;
46054;SDS011;31788;6.954;-71.872;2022-09-27T07:21:45;3.25;;;0.80;;
46054;SDS011;31788;6.954;-71.872;2022-09-27T07:24:12;3.60;;;0.80;;
46054;SDS011;31788;6.954;-71.872;2022-09-27T07:26:38;4.93;;;0.90;;
46054;SDS011;31788;6.954;-71.872;2022-09-27T07:29:05;1.83;;;0.90;;
46054;SDS011;31788;6.954;-71.872;2022-09-27T07:31:31;4.47;;;0.95;;
46054;SDS011;31788;6.954;-71.872;2022-09-27T07:33:58;2.27;;;0.90;;
46054;SDS011;31788;6.954;-71.872;2022-09-27T07:36:25;3.17;;;0.80;;
46054;SDS011;31788;6.954;-71.872;2022-09-27T07:38:51;3.63;;;0.80;;
46054;SDS011;31788;6.954;-71.872;2022-09-27T07:41:18;3.33;;;0.70;;
46054;SDS011;31788;6.954;-71.872;2022-09-27T07:43:44;4.18;;;0.80;;
46054;SDS011;31788;6.954;-71.872;2022-09-27T07:46:11;1.77;;;0.70;;
46054;SDS011;31788;6.954;-71.872;2022-09-27T07:48:38;3.67;;;0.85;;
46054;SDS011;31788;6.954;-71.872;2022-09-27T07:51:09;1.77;;;0.80;;
46054;SDS011;31788;6.954;-71.872;2022-09-27T07:53:36;2.70;;;0.77;;
46054;SDS011;31788;6.954;-71.872;2022-09-27T07:56:03;4.38;;;0.90;;
46054;SDS011;31788;6.954;-71.872;2022-09-27T07:58:29;3.27;;;0.90;;
46054;SDS011;31788;6.954;-71.872;2022-09-27T08:00:57;4.00;;;1.00;;
46054;SDS011;31788;6.954;-71.872;2022-09-27T08:03:25;2.17;;;0.60;;
46054;SDS011;31788;6.954;-71.872;2022-09-27T08:05:51;2.88;;;0.90;;
46054;SDS011;31788;6.954;-71.872;2022-09-27T08:08:18;2.85;;;0.90;;
46054;SDS011;31788;6.954;-71.872;2022-09-27T08:10:44;3.90;;;1.10;;
46054;SDS011;31788;6.954;-71.872;2022-09-27T08:13:11;1.65;;;0.98;;
46054;SDS011;31788;6.954;-71.872;2022-09-27T08:15:38;4.50;;;0.98;;
46054;SDS011;31788;6.954;-71.872;2022-09-27T08:18:05;2.00;;;1.00;;
46054;SDS011;31788;6.954;-71.872;2022-09-27T08:20:34;5.40;;;1.10;;
46054;SDS011;31788;6.954;-71.872;2022-09-27T08:23:00;5.13;;;1.10;;
46054;SDS011;31788;6.954;-71.872;2022-09-27T08:25:28;3.53;;;1.00;;
46054;SDS011;31788;6.954;-71.872;2022-09-27T08:27:56;3.45;;;1.20;;
46054;SDS011;31788;6.954;-71.872;2022-09-27T08:30:28;3.90;;;1.10;;
46054;SDS011;31788;6.954;-71.872;2022-09-27T08:32:57;3.78;;;0.90;;
46054;SDS011;31788;6.954;-71.872;2022-09-27T08:35:25;5.22;;;0.90;;
46054;SDS011;31788;6.954;-71.872;2022-09-27T08:37:53;4.37;;;0.90;;
46054;SDS011;31788;6.954;-71.872;2022-09-27T08:40:22;4.80;;;0.90;;
46054;SDS011;31788;6.954;-71.872;2022-09-27T08:42:57;3.40;;;1.10;;
46054;SDS011;31788;6.954;-71.872;2022-09-27T08:45:33;4.13;;;1.30;;
46054;SDS011;31788;6.954;-71.872;2022-09-27T08:48:07;2.55;;;1.08;;
46054;SDS011;31788;6.954;-71.872;2022-09-27T08:50:36;4.20;;;0.90;;
46054;SDS011;31788;6.954;-71.872;2022-09-27T08:53:22;2.00;;;0.90;;
46054;SDS011;31788;6.954;-71.872;2022-09-27T08:55:50;2.17;;;0.80;;
46054;SDS011;31788;6.954;-71.872;2022-09-27T09:00:45;3.42;;;0.80;;
46054;SDS011;31788;6.954;-71.872;2022-09-27T09:03:20;3.08;;;0.80;;
46054;SDS011;31788;6.954;-71.872;2022-09-27T09:06:04;3.40;;;1.20;;
46054;SDS011;31788;6.954;-71.872;2022-09-27T09:08:38;3.08;;;1.00;;
46054;SDS011;31788;6.954;-71.872;2022-09-27T09:28:44;2.90;;;0.88;;
46054;SDS011;31788;6.954;-71.872;2022-09-27T09:37:03;3.97;;;0.90;;
46054;SDS011;31788;6.954;-71.872;2022-09-27T09:39:43;4.18;;;1.00;;
46054;SDS011;31788;6.954;-71.872;2022-09-27T09:42:30;4.10;;;0.98;;
46054;SDS011;31788;6.954;-71.872;2022-09-27T09:47:50;5.10;;;1.10;;
46054;SDS011;31788;6.954;-71.872;2022-09-27T09:50:28;3.13;;;0.88;;
46054;SDS011;31788;6.954;-71.872;2022-09-27T09:53:02;2.70;;;0.80;;
46054;SDS011;31788;6.954;-71.872;2022-09-27T09:55:41;2.15;;;0.70;;
46054;SDS011;31788;6.954;-71.872;2022-09-27T10:01:13;3.40;;;0.82;;
46054;SDS011;31788;6.954;-71.872;2022-09-27T10:03:47;2.55;;;0.75;;
46054;SDS011;31788;6.954;-71.872;2022-09-27T10:06:14;2.78;;;0.70;;
46054;SDS011;31788;6.954;-71.872;2022-09-27T10:08:42;3.47;;;0.82;;
46054;SDS011;31788;6.954;-71.872;2022-09-27T10:11:15;2.10;;;0.80;;
46054;SDS011;31788;6.954;-71.872;2022-09-27T10:13:48;4.25;;;1.10;;
46054;SDS011;31788;6.954;-71.872;2022-09-27T10:16:17;3.50;;;0.85;;
46054;SDS011;31788;6.954;-71.872;2022-09-27T10:18:45;5.22;;;0.90;;
46054;SDS011;31788;6.954;-71.872;2022-09-27T10:21:14;3.70;;;1.30;;
46054;SDS011;31788;6.954;-71.872;2022-09-27T10:26:37;8.25;;;1.88;;
46054;SDS011;31788;6.954;-71.872;2022-09-27T10:31:53;5.95;;;1.70;;
46054;SDS011;31788;6.954;-71.872;2022-09-27T10:39:45;4.80;;;1.30;;
46054;SDS011;31788;6.954;-71.872;2022-09-27T10:42:24;3.00;;;1.50;;
46054;SDS011;31788;6.954;-71.872;2022-09-27T10:45:35;5.27;;;1.50;;
46054;SDS011;31788;6.954;-71.872;2022-09-27T10:47:57;6.33;;;2.77;;
46054;SDS011;31788;6.954;-71.872;2022-09-27T10:50:28;6.37;;;2.90;;
46054;SDS011;31788;6.954;-71.872;2022-09-27T10:53:03;7.70;;;2.50;;
46054;SDS011;31788;6.954;-71.872;2022-09-27T10:55:46;8.60;;;3.25;;
46054;SDS011;31788;6.954;-71.872;2022-09-27T10:58:18;7.05;;;3.50;;
46054;SDS011;31788;6.954;-71.872;2022-09-27T11:01:07;6.55;;;3.00;;
46054;SDS011;31788;6.954;-71.872;2022-09-27T11:03:50;9.73;;;3.00;;
46054;SDS011;31788;6.954;-71.872;2022-09-27T11:08:49;5.07;;;3.20;;
46054;SDS011;31788;6.954;-71.872;2022-09-27T11:11:18;5.88;;;3.08;;
46054;SDS011;31788;6.954;-71.872;2022-09-27T11:13:57;10.25;;;3.35;;
46054;SDS011;31788;6.954;-71.872;2022-09-27T11:36:12;4.43;;;1.52;;
46054;SDS011;31788;6.954;-71.872;2022-09-27T11:39:06;2.95;;;1.30;;
46054;SDS011;31788;6.954;-71.872;2022-09-27T11:44:26;5.40;;;1.80;;
46054;SDS011;31788;6.954;-71.872;2022-09-27T12:07:15;2.73;;;1.00;;
46054;SDS011;31788;6.954;-71.872;2022-09-27T12:09:46;6.18;;;1.13;;
46054;SDS011;31788;6.954;-71.872;2022-09-27T12:12:18;2.47;;;1.02;;
46054;SDS011;31788;6.954;-71.872;2022-09-27T12:15:16;10.90;;;1.25;;
46054;SDS011;31788;6.954;-71.872;2022-09-27T12:17:53;5.68;;;1.17;;
46054;SDS011;31788;6.954;-71.872;2022-09-27T12:20:35;3.10;;;1.30;;
46054;SDS011;31788;6.954;-71.872;2022-09-27T12:23:11;4.82;;;1.30;;
46054;SDS011;31788;6.954;-71.872;2022-09-27T12:25:53;9.40;;;1.80;;
46054;SDS011;31788;6.954;-71.872;2022-09-27T12:39:46;6.47;;;1.55;;
46054;SDS011;31788;6.954;-71.872;2022-09-27T12:42:35;3.23;;;1.37;;
46054;SDS011;31788;6.954;-71.872;2022-09-27T12:45:09;11.65;;;2.22;;
46054;SDS011;31788;6.954;-71.872;2022-09-27T12:47:42;13.80;;;2.28;;
46054;SDS011;31788;6.954;-71.872;2022-09-27T12:52:46;3.50;;;1.83;;
46054;SDS011;31788;6.954;-71.872;2022-09-27T13:12:05;17.83;;;2.47;;
46054;SDS011;31788;6.954;-71.872;2022-09-27T13:17:49;4.95;;;1.50;;
46054;SDS011;31788;6.954;-71.872;2022-09-27T13:22:56;2.72;;;1.30;;
46054;SDS011;31788;6.954;-71.872;2022-09-27T13:31:04;3.00;;;1.20;;
46054;SDS011;31788;6.954;-71.872;2022-09-27T13:33:39;4.72;;;1.63;;
46054;SDS011;31788;6.954;-71.872;2022-09-27T13:41:35;3.88;;;1.00;;
46054;SDS011;31788;6.954;-71.872;2022-09-27T13:44:08;4.90;;;1.20;;
46054;SDS011;31788;6.954;-71.872;2022-09-27T13:46:48;9.00;;;1.20;;
46054;SDS011;31788;6.954;-71.872;2022-09-27T13:54:51;5.65;;;1.38;;
46054;SDS011;31788;6.954;-71.872;2022-09-27T14:00:23;5.18;;;1.50;;
46054;SDS011;31788;6.954;-71.872;2022-09-27T14:05:54;5.18;;;1.60;;
46054;SDS011;31788;6.954;-71.872;2022-09-27T14:08:42;5.07;;;1.38;;
46054;SDS011;31788;6.954;-71.872;2022-09-27T14:11:20;6.28;;;1.30;;
46054;SDS011;31788;6.954;-71.872;2022-09-27T14:14:21;6.00;;;1.27;;
46054;SDS011;31788;6.954;-71.872;2022-09-27T14:16:49;8.05;;;1.40;;
46054;SDS011;31788;6.954;-71.872;2022-09-27T14:19:20;13.43;;;1.65;;
46054;SDS011;31788;6.954;-71.872;2022-09-27T14:21:49;8.00;;;1.40;;
46054;SDS011;31788;6.954;-71.872;2022-09-27T14:26:49;8.50;;;1.50;;
46054;SDS011;31788;6.954;-71.872;2022-09-27T14:29:41;7.40;;;1.30;;
46054;SDS011;31788;6.954;-71.872;2022-09-27T14:32:17;23.48;;;2.33;;
46054;SDS011;31788;6.954;-71.872;2022-09-27T14:34:48;4.05;;;1.30;;
46054;SDS011;31788;6.954;-71.872;2022-09-27T14:37:27;5.05;;;1.50;;
46054;SDS011;31788;6.954;-71.872;2022-09-27T14:39:57;4.55;;;1.52;;
46054;SDS011;31788;6.954;-71.872;2022-09-27T14:42:31;4.63;;;1.80;;
46054;SDS011;31788;6.954;-71.872;2022-09-27T14:47:46;3.63;;;2.10;;
46054;SDS011;31788;6.954;-71.872;2022-09-27T14:50:29;4.97;;;2.30;;
46054;SDS011;31788;6.954;-71.872;2022-09-27T14:52:56;5.63;;;2.37;;
46054;SDS011;31788;6.954;-71.872;2022-09-27T14:55:27;3.70;;;2.40;;
46054;SDS011;31788;6.954;-71.872;2022-09-27T14:57:59;3.57;;;2.20;;
46054;SDS011;31788;6.954;-71.872;2022-09-27T15:00:31;3.53;;;1.90;;
46054;SDS011;31788;6.954;-71.872;2022-09-27T15:03:01;7.03;;;3.20;;
46054;SDS011;31788;6.954;-71.872;2022-09-27T15:05:34;3.67;;;2.53;;
46054;SDS011;31788;6.954;-71.872;2022-09-27T15:08:05;3.90;;;2.55;;
46054;SDS011;31788;6.954;-71.872;2022-09-27T15:10:33;5.35;;;2.50;;
46054;SDS011;31788;6.954;-71.872;2022-09-27T15:13:01;8.55;;;2.28;;
46054;SDS011;31788;6.954;-71.872;2022-09-27T15:15:30;6.88;;;2.60;;
46054;SDS011;31788;6.954;-71.872;2022-09-27T15:20:59;3.88;;;1.90;;
46054;SDS011;31788;6.954;-71.872;2022-09-27T15:23:27;5.50;;;2.42;;
46054;SDS011;31788;6.954;-71.872;2022-09-27T15:25:56;4.20;;;2.28;;
46054;SDS011;31788;6.954;-71.872;2022-09-27T15:28:36;5.28;;;2.70;;
46054;SDS011;31788;6.954;-71.872;2022-09-27T15:31:07;6.03;;;2.38;;
46054;SDS011;31788;6.954;-71.872;2022-09-27T15:33:33;4.07;;;2.40;;
46054;SDS011;31788;6.954;-71.872;2022-09-27T15:36:03;5.72;;;1.95;;
46054;SDS011;31788;6.954;-71.872;2022-09-27T15:41:00;3.65;;;2.75;;
46054;SDS011;31788;6.954;-71.872;2022-09-27T15:46:27;12.27;;;3.03;;
46054;SDS011;31788;6.954;-71.872;2022-09-27T15:52:00;9.20;;;2.40;;
46054;SDS011;31788;6.954;-71.872;2022-09-27T15:54:29;10.82;;;2.50;;
46054;SDS011;31788;6.954;-71.872;2022-09-27T15:57:04;4.88;;;2.33;;
46054;SDS011;31788;6.954;-71.872;2022-09-27T15:59:32;7.82;;;2.00;;
46054;SDS011;31788;6.954;-71.872;2022-09-27T16:02:02;4.90;;;1.90;;
46054;SDS011;31788;6.954;-71.872;2022-09-27T16:04:34;4.80;;;1.83;;
46054;SDS011;31788;6.954;-71.872;2022-09-27T16:07:01;3.80;;;1.92;;
46054;SDS011;31788;6.954;-71.872;2022-09-27T16:09:33;2.90;;;1.80;;
46054;SDS011;31788;6.954;-71.872;2022-09-27T16:11:59;4.80;;;1.88;;
46054;SDS011;31788;6.954;-71.872;2022-09-27T16:14:26;4.28;;;1.70;;
46054;SDS011;31788;6.954;-71.872;2022-09-27T16:16:54;5.57;;;1.50;;
46054;SDS011;31788;6.954;-71.872;2022-09-27T16:19:24;3.30;;;1.60;;
46054;SDS011;31788;6.954;-71.872;2022-09-27T16:21:51;3.40;;;1.52;;
46054;SDS011;31788;6.954;-71.872;2022-09-27T16:24:17;1.42;;;1.27;;
46054;SDS011;31788;6.954;-71.872;2022-09-27T16:26:44;2.70;;;1.33;;
46054;SDS011;31788;6.954;-71.872;2022-09-27T16:29:11;2.30;;;1.40;;
46054;SDS011;31788;6.954;-71.872;2022-09-27T16:31:39;1.50;;;1.23;;
46054;SDS011;31788;6.954;-71.872;2022-09-27T16:34:08;1.70;;;1.27;;
46054;SDS011;31788;6.954;-71.872;2022-09-27T16:36:36;2.08;;;1.30;;
46054;SDS011;31788;6.954;-71.872;2022-09-27T16:39:04;3.03;;;1.48;;
46054;SDS011;31788;6.954;-71.872;2022-09-27T16:41:32;7.63;;;1.90;;
46054;SDS011;31788;6.954;-71.872;2022-09-27T16:44:04;12.23;;;1.92;;
46054;SDS011;31788;6.954;-71.872;2022-09-27T16:46:33;20.92;;;3.03;;
46054;SDS011;31788;6.954;-71.872;2022-09-27T16:49:00;15.02;;;2.33;;
46054;SDS011;31788;6.954;-71.872;2022-09-27T16:51:26;17.92;;;2.33;;
46054;SDS011;31788;6.954;-71.872;2022-09-27T16:54:11;16.17;;;2.60;;
46054;SDS011;31788;6.954;-71.872;2022-09-27T16:56:40;22.83;;;2.80;;
46054;SDS011;31788;6.954;-71.872;2022-09-27T16:59:06;17.35;;;3.00;;
46054;SDS011;31788;6.954;-71.872;2022-09-27T17:01:33;15.63;;;2.73;;
46054;SDS011;31788;6.954;-71.872;2022-09-27T17:04:01;10.93;;;2.20;;
46054;SDS011;31788;6.954;-71.872;2022-09-27T17:06:27;10.37;;;1.90;;
46054;SDS011;31788;6.954;-71.872;2022-09-27T17:08:56;14.47;;;2.57;;
46054;SDS011;31788;6.954;-71.872;2022-09-27T17:11:23;13.13;;;2.35;;
46054;SDS011;31788;6.954;-71.872;2022-09-27T17:13:52;8.40;;;2.20;;
46054;SDS011;31788;6.954;-71.872;2022-09-27T17:16:20;12.25;;;2.30;;
46054;SDS011;31788;6.954;-71.872;2022-09-27T17:18:47;8.47;;;2.07;;
46054;SDS011;31788;6.954;-71.872;2022-09-27T17:21:14;7.35;;;2.13;;
46054;SDS011;31788;6.954;-71.872;2022-09-27T17:23:41;12.85;;;2.28;;
46054;SDS011;31788;6.954;-71.872;2022-09-27T17:26:12;7.55;;;1.83;;
46054;SDS011;31788;6.954;-71.872;2022-09-27T17:28:43;3.45;;;1.80;;
46054;SDS011;31788;6.954;-71.872;2022-09-27T17:31:11;9.77;;;2.00;;
46054;SDS011;31788;6.954;-71.872;2022-09-27T17:33:42;5.78;;;1.77;;
46054;SDS011;31788;6.954;-71.872;2022-09-27T17:36:20;5.57;;;1.65;;
46054;SDS011;31788;6.954;-71.872;2022-09-27T17:38:49;3.38;;;1.70;;
46054;SDS011;31788;6.954;-71.872;2022-09-27T17:41:20;2.78;;;1.55;;
46054;SDS011;31788;6.954;-71.872;2022-09-27T17:43:53;2.30;;;1.50;;
46054;SDS011;31788;6.954;-71.872;2022-09-27T17:46:26;4.97;;;1.60;;
46054;SDS011;31788;6.954;-71.872;2022-09-27T17:48:54;4.47;;;1.90;;
46054;SDS011;31788;6.954;-71.872;2022-09-27T17:51:40;1.90;;;1.40;;
46054;SDS011;31788;6.954;-71.872;2022-09-27T17:54:08;8.18;;;1.70;;
46054;SDS011;31788;6.954;-71.872;2022-09-27T17:56:36;3.75;;;1.70;;
46054;SDS011;31788;6.954;-71.872;2022-09-27T17:59:04;5.18;;;1.88;;
46054;SDS011;31788;6.954;-71.872;2022-09-27T18:01:32;5.35;;;1.88;;
46054;SDS011;31788;6.954;-71.872;2022-09-27T18:04:01;3.00;;;1.60;;
46054;SDS011;31788;6.954;-71.872;2022-09-27T18:06:28;3.05;;;1.67;;
46054;SDS011;31788;6.954;-71.872;2022-09-27T18:08:55;5.82;;;1.90;;
46054;SDS011;31788;6.954;-71.872;2022-09-27T18:11:25;5.03;;;1.67;;
46054;SDS011;31788;6.954;-71.872;2022-09-27T18:13:53;5.25;;;1.60;;
46054;SDS011;31788;6.954;-71.872;2022-09-27T18:16:22;10.03;;;1.70;;
46054;SDS011;31788;6.954;-71.872;2022-09-27T18:18:59;5.83;;;1.70;;
46054;SDS011;31788;6.954;-71.872;2022-09-27T18:21:27;6.67;;;1.60;;
46054;SDS011;31788;6.954;-71.872;2022-09-27T18:23:57;24.00;;;2.30;;
46054;SDS011;31788;6.954;-71.872;2022-09-27T18:26:27;3.92;;;1.40;;
46054;SDS011;31788;6.954;-71.872;2022-09-27T18:28:54;4.07;;;1.40;;
46054;SDS011;31788;6.954;-71.872;2022-09-27T18:31:25;3.22;;;1.20;;
46054;SDS011;31788;6.954;-71.872;2022-09-27T18:33:52;2.72;;;1.20;;
46054;SDS011;31788;6.954;-71.872;2022-09-27T18:36:19;4.00;;;1.30;;